sensor_id;sensor_type;location;lat;lon;timestamp;temperature;humidity
20182;DHT22;10250;50.756;6.172;2023-02-28T00:00:28;4.70;1.00
20182;DHT22;10250;50.756;6.172;2023-02-28T00:02:29;4.60;1.00
20182;DHT22;10250;50.756;6.172;2023-02-28T00:04:29;4.60;1.00
20182;DHT22;10250;50.756;6.172;2023-02-28T00:06:30;4.60;1.00
20182;DHT22;10250;50.756;6.172;2023-02-28T00:08:31;4.60;1.00
20182;DHT22;10250;50.756;6.172;2023-02-28T00:10:31;4.60;1.00
20182;DHT22;10250;50.756;6.172;2023-02-28T00:12:32;4.60;1.00
20182;DHT22;10250;50.756;6.172;2023-02-28T00:14:33;4.40;1.00
20182;DHT22;10250;50.756;6.172;2023-02-28T00:16:33;4.50;1.00
20182;DHT22;10250;50.756;6.172;2023-02-28T00:18:35;4.60;1.00
20182;DHT22;10250;50.756;6.172;2023-02-28T00:20:35;4.50;1.00
20182;DHT22;10250;50.756;6.172;2023-02-28T00:22:38;4.60;1.00
20182;DHT22;10250;50.756;6.172;2023-02-28T00:24:38;4.50;1.00
20182;DHT22;10250;50.756;6.172;2023-02-28T00:26:39;4.50;1.00
20182;DHT22;10250;50.756;6.172;2023-02-28T00:28:39;4.50;1.00
20182;DHT22;10250;50.756;6.172;2023-02-28T00:30:40;4.50;1.00
20182;DHT22;10250;50.756;6.172;2023-02-28T00:32:41;4.50;1.00
20182;DHT22;10250;50.756;6.172;2023-02-28T00:34:41;4.50;1.00
20182;DHT22;10250;50.756;6.172;2023-02-28T00:36:42;4.30;1.00
20182;DHT22;10250;50.756;6.172;2023-02-28T00:38:45;4.30;1.00
20182;DHT22;10250;50.756;6.172;2023-02-28T00:40:46;4.30;1.00
20182;DHT22;10250;50.756;6.172;2023-02-28T00:42:46;4.40;1.00
20182;DHT22;10250;50.756;6.172;2023-02-28T00:44:47;4.40;1.00
20182;DHT22;10250;50.756;6.172;2023-02-28T00:46:48;4.40;1.00
20182;DHT22;10250;50.756;6.172;2023-02-28T00:48:48;4.40;1.00
20182;DHT22;10250;50.756;6.172;2023-02-28T00:50:49;4.30;1.00
20182;DHT22;10250;50.756;6.172;2023-02-28T00:52:50;4.20;1.00
20182;DHT22;10250;50.756;6.172;2023-02-28T00:54:50;4.30;1.00
20182;DHT22;10250;50.756;6.172;2023-02-28T00:56:51;4.40;1.00
20182;DHT22;10250;50.756;6.172;2023-02-28T00:58:51;4.40;1.00
20182;DHT22;10250;50.756;6.172;2023-02-28T01:00:53;4.40;1.00
20182;DHT22;10250;50.756;6.172;2023-02-28T01:02:54;4.50;1.00
20182;DHT22;10250;50.756;6.172;2023-02-28T01:04:54;4.40;1.00
20182;DHT22;10250;50.756;6.172;2023-02-28T01:06:55;4.40;1.00
20182;DHT22;10250;50.756;6.172;2023-02-28T01:08:55;4.40;1.00
20182;DHT22;10250;50.756;6.172;2023-02-28T01:10:56;4.20;1.00
20182;DHT22;10250;50.756;6.172;2023-02-28T01:12:57;4.20;1.00
20182;DHT22;10250;50.756;6.172;2023-02-28T01:14:58;4.30;1.00
20182;DHT22;10250;50.756;6.172;2023-02-28T01:16:58;4.20;1.00
20182;DHT22;10250;50.756;6.172;2023-02-28T01:18:59;4.20;1.00
20182;DHT22;10250;50.756;6.172;2023-02-28T01:21:07;4.30;1.00
20182;DHT22;10250;50.756;6.172;2023-02-28T01:23:08;4.30;1.00
20182;DHT22;10250;50.756;6.172;2023-02-28T01:25:09;4.20;1.00
20182;DHT22;10250;50.756;6.172;2023-02-28T01:27:09;4.20;1.00
20182;DHT22;10250;50.756;6.172;2023-02-28T01:29:10;4.30;1.00
20182;DHT22;10250;50.756;6.172;2023-02-28T01:31:11;4.30;1.00
20182;DHT22;10250;50.756;6.172;2023-02-28T01:33:12;4.30;1.00
20182;DHT22;10250;50.756;6.172;2023-02-28T01:35:12;4.20;1.00
20182;DHT22;10250;50.756;6.172;2023-02-28T01:37:13;4.30;1.00
20182;DHT22;10250;50.756;6.172;2023-02-28T01:39:14;4.30;1.00
20182;DHT22;10250;50.756;6.172;2023-02-28T01:41:17;4.40;1.00
20182;DHT22;10250;50.756;6.172;2023-02-28T01:43:30;4.40;1.00
20182;DHT22;10250;50.756;6.172;2023-02-28T01:45:31;4.40;1.00
20182;DHT22;10250;50.756;6.172;2023-02-28T01:47:40;4.40;1.00
20182;DHT22;10250;50.756;6.172;2023-02-28T01:49:42;4.40;1.00
20182;DHT22;10250;50.756;6.172;2023-02-28T01:51:46;4.40;1.00
20182;DHT22;10250;50.756;6.172;2023-02-28T01:54:05;4.40;1.00
20182;DHT22;10250;50.756;6.172;2023-02-28T01:56:08;4.40;1.00
20182;DHT22;10250;50.756;6.172;2023-02-28T01:58:10;4.30;1.00
20182;DHT22;10250;50.756;6.172;2023-02-28T02:00:14;4.30;1.00
20182;DHT22;10250;50.756;6.172;2023-02-28T02:02:16;4.20;1.00
20182;DHT22;10250;50.756;6.172;2023-02-28T02:04:18;4.20;1.00
20182;DHT22;10250;50.756;6.172;2023-02-28T02:06:19;4.10;1.00
20182;DHT22;10250;50.756;6.172;2023-02-28T02:08:24;4.20;1.00
20182;DHT22;10250;50.756;6.172;2023-02-28T02:10:41;4.20;1.00
20182;DHT22;10250;50.756;6.172;2023-02-28T02:15:16;4.20;1.00
20182;DHT22;10250;50.756;6.172;2023-02-28T02:17:42;4.10;1.00
20182;DHT22;10250;50.756;6.172;2023-02-28T02:22:15;4.10;1.00
20182;DHT22;10250;50.756;6.172;2023-02-28T02:34:13;4.00;1.00
20182;DHT22;10250;50.756;6.172;2023-02-28T02:36:33;4.00;1.00
20182;DHT22;10250;50.756;6.172;2023-02-28T02:38:44;4.20;1.00
20182;DHT22;10250;50.756;6.172;2023-02-28T02:45:06;4.00;1.00
20182;DHT22;10250;50.756;6.172;2023-02-28T02:47:14;4.00;1.00
20182;DHT22;10250;50.756;6.172;2023-02-28T02:49:24;4.00;1.00
20182;DHT22;10250;50.756;6.172;2023-02-28T02:51:27;4.00;1.00
20182;DHT22;10250;50.756;6.172;2023-02-28T02:53:32;4.00;1.00
20182;DHT22;10250;50.756;6.172;2023-02-28T02:55:39;4.10;1.00
20182;DHT22;10250;50.756;6.172;2023-02-28T02:57:47;4.00;1.00
20182;DHT22;10250;50.756;6.172;2023-02-28T02:59:49;4.00;1.00
20182;DHT22;10250;50.756;6.172;2023-02-28T03:01:53;3.80;1.00
20182;DHT22;10250;50.756;6.172;2023-02-28T03:03:57;3.90;1.00
20182;DHT22;10250;50.756;6.172;2023-02-28T03:06:02;3.80;1.00
20182;DHT22;10250;50.756;6.172;2023-02-28T03:08:04;3.80;1.00
20182;DHT22;10250;50.756;6.172;2023-02-28T03:10:48;3.80;1.00
20182;DHT22;10250;50.756;6.172;2023-02-28T03:12:55;3.70;1.00
20182;DHT22;10250;50.756;6.172;2023-02-28T03:15:24;3.80;1.00
20182;DHT22;10250;50.756;6.172;2023-02-28T03:26:58;3.60;1.00
20182;DHT22;10250;50.756;6.172;2023-02-28T03:29:15;3.70;1.00
20182;DHT22;10250;50.756;6.172;2023-02-28T03:33:28;3.80;1.00
20182;DHT22;10250;50.756;6.172;2023-02-28T03:35:34;3.90;1.00
20182;DHT22;10250;50.756;6.172;2023-02-28T03:37:39;3.90;1.00
20182;DHT22;10250;50.756;6.172;2023-02-28T03:39:45;3.90;1.00
20182;DHT22;10250;50.756;6.172;2023-02-28T03:41:57;3.90;1.00
20182;DHT22;10250;50.756;6.172;2023-02-28T03:44:05;3.90;1.00
20182;DHT22;10250;50.756;6.172;2023-02-28T03:46:09;3.80;1.00
20182;DHT22;10250;50.756;6.172;2023-02-28T03:48:16;3.70;1.00
20182;DHT22;10250;50.756;6.172;2023-02-28T03:50:22;3.70;1.00
20182;DHT22;10250;50.756;6.172;2023-02-28T03:52:28;3.70;1.00
20182;DHT22;10250;50.756;6.172;2023-02-28T03:54:46;3.70;1.00
20182;DHT22;10250;50.756;6.172;2023-02-28T03:59:16;3.80;1.00
20182;DHT22;10250;50.756;6.172;2023-02-28T04:01:32;3.80;1.00
20182;DHT22;10250;50.756;6.172;2023-02-28T04:03:36;3.90;1.00
20182;DHT22;10250;50.756;6.172;2023-02-28T04:05:53;3.80;1.00
20182;DHT22;10250;50.756;6.172;2023-02-28T04:07:54;3.80;1.00
20182;DHT22;10250;50.756;6.172;2023-02-28T04:09:54;3.70;1.00
20182;DHT22;10250;50.756;6.172;2023-02-28T04:11:55;3.70;1.00
20182;DHT22;10250;50.756;6.172;2023-02-28T04:13:58;3.80;1.00
20182;DHT22;10250;50.756;6.172;2023-02-28T04:15:59;3.70;1.00
20182;DHT22;10250;50.756;6.172;2023-02-28T04:17:59;3.70;1.00
20182;DHT22;10250;50.756;6.172;2023-02-28T04:20:00;3.50;1.00
20182;DHT22;10250;50.756;6.172;2023-02-28T04:22:01;3.60;1.00
20182;DHT22;10250;50.756;6.172;2023-02-28T04:24:02;3.60;1.00
20182;DHT22;10250;50.756;6.172;2023-02-28T04:26:03;3.60;1.00
20182;DHT22;10250;50.756;6.172;2023-02-28T04:28:04;3.50;1.00
20182;DHT22;10250;50.756;6.172;2023-02-28T04:30:05;3.40;1.00
20182;DHT22;10250;50.756;6.172;2023-02-28T04:32:06;3.40;1.00
20182;DHT22;10250;50.756;6.172;2023-02-28T04:34:06;3.50;1.00
20182;DHT22;10250;50.756;6.172;2023-02-28T04:36:08;3.50;1.00
20182;DHT22;10250;50.756;6.172;2023-02-28T04:38:09;3.60;1.00
20182;DHT22;10250;50.756;6.172;2023-02-28T04:40:10;3.50;1.00
20182;DHT22;10250;50.756;6.172;2023-02-28T04:42:11;3.50;1.00
20182;DHT22;10250;50.756;6.172;2023-02-28T04:44:13;3.50;1.00
20182;DHT22;10250;50.756;6.172;2023-02-28T04:46:14;3.60;1.00
20182;DHT22;10250;50.756;6.172;2023-02-28T04:48:15;3.50;1.00
20182;DHT22;10250;50.756;6.172;2023-02-28T04:50:16;3.50;1.00
20182;DHT22;10250;50.756;6.172;2023-02-28T04:52:16;3.50;1.00
20182;DHT22;10250;50.756;6.172;2023-02-28T04:54:17;3.50;1.00
20182;DHT22;10250;50.756;6.172;2023-02-28T04:56:18;3.40;1.00
20182;DHT22;10250;50.756;6.172;2023-02-28T04:58:19;3.40;1.00
20182;DHT22;10250;50.756;6.172;2023-02-28T05:00:20;3.40;1.00
20182;DHT22;10250;50.756;6.172;2023-02-28T05:02:20;3.40;1.00
20182;DHT22;10250;50.756;6.172;2023-02-28T05:04:21;3.30;1.00
20182;DHT22;10250;50.756;6.172;2023-02-28T05:06:24;3.40;1.00
20182;DHT22;10250;50.756;6.172;2023-02-28T05:08:25;3.50;1.00
20182;DHT22;10250;50.756;6.172;2023-02-28T05:10:26;3.60;1.00
20182;DHT22;10250;50.756;6.172;2023-02-28T05:12:26;3.50;1.00
20182;DHT22;10250;50.756;6.172;2023-02-28T05:14:27;3.50;1.00
20182;DHT22;10250;50.756;6.172;2023-02-28T05:16:28;3.60;1.00
20182;DHT22;10250;50.756;6.172;2023-02-28T05:18:28;3.60;1.00
20182;DHT22;10250;50.756;6.172;2023-02-28T05:20:29;3.40;1.00
20182;DHT22;10250;50.756;6.172;2023-02-28T05:22:29;3.50;1.00
20182;DHT22;10250;50.756;6.172;2023-02-28T05:24:30;3.50;1.00
20182;DHT22;10250;50.756;6.172;2023-02-28T05:26:33;3.50;1.00
20182;DHT22;10250;50.756;6.172;2023-02-28T05:28:34;3.50;1.00
20182;DHT22;10250;50.756;6.172;2023-02-28T05:30:35;3.50;1.00
20182;DHT22;10250;50.756;6.172;2023-02-28T05:32:37;3.60;1.00
20182;DHT22;10250;50.756;6.172;2023-02-28T05:34:39;3.40;1.00
20182;DHT22;10250;50.756;6.172;2023-02-28T05:36:39;3.30;1.00
20182;DHT22;10250;50.756;6.172;2023-02-28T05:38:40;3.20;1.00
20182;DHT22;10250;50.756;6.172;2023-02-28T05:40:41;3.20;1.00
20182;DHT22;10250;50.756;6.172;2023-02-28T05:42:41;3.20;1.00
20182;DHT22;10250;50.756;6.172;2023-02-28T05:44:42;3.20;1.00
20182;DHT22;10250;50.756;6.172;2023-02-28T05:46:42;3.20;1.00
20182;DHT22;10250;50.756;6.172;2023-02-28T05:48:46;3.20;1.00
20182;DHT22;10250;50.756;6.172;2023-02-28T05:50:47;3.20;1.00
20182;DHT22;10250;50.756;6.172;2023-02-28T05:52:51;3.30;1.00
20182;DHT22;10250;50.756;6.172;2023-02-28T05:54:52;3.20;1.00
20182;DHT22;10250;50.756;6.172;2023-02-28T05:56:52;3.10;1.00
20182;DHT22;10250;50.756;6.172;2023-02-28T05:58:53;3.20;1.00
20182;DHT22;10250;50.756;6.172;2023-02-28T06:00:53;3.20;1.00
20182;DHT22;10250;50.756;6.172;2023-02-28T06:02:54;3.10;1.00
20182;DHT22;10250;50.756;6.172;2023-02-28T06:04:58;3.10;1.00
20182;DHT22;10250;50.756;6.172;2023-02-28T06:06:58;3.20;1.00
20182;DHT22;10250;50.756;6.172;2023-02-28T06:08:59;3.10;1.00
20182;DHT22;10250;50.756;6.172;2023-02-28T06:11:03;3.10;1.00
20182;DHT22;10250;50.756;6.172;2023-02-28T06:13:04;3.20;1.00
20182;DHT22;10250;50.756;6.172;2023-02-28T06:15:05;3.10;1.00
20182;DHT22;10250;50.756;6.172;2023-02-28T06:17:06;3.10;1.00
20182;DHT22;10250;50.756;6.172;2023-02-28T06:19:07;3.20;1.00
20182;DHT22;10250;50.756;6.172;2023-02-28T06:21:07;3.10;1.00
20182;DHT22;10250;50.756;6.172;2023-02-28T06:23:09;3.10;1.00
20182;DHT22;10250;50.756;6.172;2023-02-28T06:25:10;3.30;1.00
20182;DHT22;10250;50.756;6.172;2023-02-28T06:27:11;3.30;1.00
20182;DHT22;10250;50.756;6.172;2023-02-28T06:29:12;3.30;1.00
20182;DHT22;10250;50.756;6.172;2023-02-28T06:31:14;3.20;1.00
20182;DHT22;10250;50.756;6.172;2023-02-28T06:33:15;3.30;1.00
20182;DHT22;10250;50.756;6.172;2023-02-28T06:35:16;3.20;1.00
20182;DHT22;10250;50.756;6.172;2023-02-28T06:37:17;3.10;1.00
20182;DHT22;10250;50.756;6.172;2023-02-28T06:39:18;3.10;1.00
20182;DHT22;10250;50.756;6.172;2023-02-28T06:41:19;3.10;1.00
20182;DHT22;10250;50.756;6.172;2023-02-28T06:43:20;3.10;1.00
20182;DHT22;10250;50.756;6.172;2023-02-28T06:45:20;3.20;1.00
20182;DHT22;10250;50.756;6.172;2023-02-28T06:47:21;3.20;1.00
20182;DHT22;10250;50.756;6.172;2023-02-28T06:49:22;3.20;1.00
20182;DHT22;10250;50.756;6.172;2023-02-28T06:51:22;3.20;1.00
20182;DHT22;10250;50.756;6.172;2023-02-28T06:53:24;3.10;1.00
20182;DHT22;10250;50.756;6.172;2023-02-28T06:55:25;3.30;1.00
20182;DHT22;10250;50.756;6.172;2023-02-28T06:57:31;3.30;1.00
20182;DHT22;10250;50.756;6.172;2023-02-28T06:59:32;3.30;1.00
20182;DHT22;10250;50.756;6.172;2023-02-28T07:01:33;3.30;1.00
20182;DHT22;10250;50.756;6.172;2023-02-28T07:03:35;3.30;1.00
20182;DHT22;10250;50.756;6.172;2023-02-28T07:05:36;3.40;1.00
20182;DHT22;10250;50.756;6.172;2023-02-28T07:07:37;3.40;1.00
20182;DHT22;10250;50.756;6.172;2023-02-28T07:09:40;3.50;1.00
20182;DHT22;10250;50.756;6.172;2023-02-28T07:11:41;3.30;1.00
20182;DHT22;10250;50.756;6.172;2023-02-28T07:13:43;3.40;1.00
20182;DHT22;10250;50.756;6.172;2023-02-28T07:15:43;3.50;1.00
20182;DHT22;10250;50.756;6.172;2023-02-28T07:17:44;3.40;1.00
20182;DHT22;10250;50.756;6.172;2023-02-28T07:19:45;3.40;1.00
20182;DHT22;10250;50.756;6.172;2023-02-28T07:21:45;3.50;1.00
20182;DHT22;10250;50.756;6.172;2023-02-28T07:23:46;3.50;1.00
20182;DHT22;10250;50.756;6.172;2023-02-28T07:25:46;3.50;1.00
20182;DHT22;10250;50.756;6.172;2023-02-28T07:27:47;3.50;1.00
20182;DHT22;10250;50.756;6.172;2023-02-28T07:29:48;3.60;1.00
20182;DHT22;10250;50.756;6.172;2023-02-28T07:31:48;3.60;1.00
20182;DHT22;10250;50.756;6.172;2023-02-28T07:33:50;3.70;1.00
20182;DHT22;10250;50.756;6.172;2023-02-28T07:35:51;3.70;1.00
20182;DHT22;10250;50.756;6.172;2023-02-28T07:37:52;3.70;1.00
20182;DHT22;10250;50.756;6.172;2023-02-28T07:39:52;3.80;1.00
20182;DHT22;10250;50.756;6.172;2023-02-28T07:41:53;3.60;1.00
20182;DHT22;10250;50.756;6.172;2023-02-28T07:43:54;3.60;1.00
20182;DHT22;10250;50.756;6.172;2023-02-28T07:45:56;3.70;1.00
20182;DHT22;10250;50.756;6.172;2023-02-28T07:48:01;3.70;1.00
20182;DHT22;10250;50.756;6.172;2023-02-28T07:50:02;2.60;1.00
20182;DHT22;10250;50.756;6.172;2023-02-28T07:52:04;3.00;1.00
20182;DHT22;10250;50.756;6.172;2023-02-28T07:54:05;3.30;1.00
20182;DHT22;10250;50.756;6.172;2023-02-28T07:56:06;3.30;1.00
20182;DHT22;10250;50.756;6.172;2023-02-28T07:58:07;3.50;1.00
20182;DHT22;10250;50.756;6.172;2023-02-28T08:00:10;3.50;1.00
20182;DHT22;10250;50.756;6.172;2023-02-28T08:02:14;3.60;1.00
20182;DHT22;10250;50.756;6.172;2023-02-28T08:04:16;3.60;1.00
20182;DHT22;10250;50.756;6.172;2023-02-28T08:06:19;3.60;1.00
20182;DHT22;10250;50.756;6.172;2023-02-28T08:08:20;3.60;1.00
20182;DHT22;10250;50.756;6.172;2023-02-28T08:10:21;3.50;1.00
20182;DHT22;10250;50.756;6.172;2023-02-28T08:12:21;3.60;1.00
20182;DHT22;10250;50.756;6.172;2023-02-28T08:14:22;3.30;1.00
20182;DHT22;10250;50.756;6.172;2023-02-28T08:16:23;3.10;1.00
20182;DHT22;10250;50.756;6.172;2023-02-28T08:18:24;3.00;1.00
20182;DHT22;10250;50.756;6.172;2023-02-28T08:20:26;3.00;1.00
20182;DHT22;10250;50.756;6.172;2023-02-28T08:22:26;3.00;1.00
20182;DHT22;10250;50.756;6.172;2023-02-28T08:24:27;3.00;1.00
20182;DHT22;10250;50.756;6.172;2023-02-28T08:26:27;3.00;1.00
20182;DHT22;10250;50.756;6.172;2023-02-28T08:28:28;2.60;1.00
20182;DHT22;10250;50.756;6.172;2023-02-28T08:30:29;2.60;1.00
20182;DHT22;10250;50.756;6.172;2023-02-28T08:32:29;2.80;1.00
20182;DHT22;10250;50.756;6.172;2023-02-28T08:34:30;3.00;1.00
20182;DHT22;10250;50.756;6.172;2023-02-28T08:36:30;3.10;1.00
20182;DHT22;10250;50.756;6.172;2023-02-28T08:38:31;3.30;1.00
20182;DHT22;10250;50.756;6.172;2023-02-28T08:40:32;3.30;1.00
20182;DHT22;10250;50.756;6.172;2023-02-28T08:42:32;3.30;1.00
20182;DHT22;10250;50.756;6.172;2023-02-28T08:44:33;2.90;1.00
20182;DHT22;10250;50.756;6.172;2023-02-28T08:46:34;3.00;1.00
20182;DHT22;10250;50.756;6.172;2023-02-28T08:48:35;2.70;1.00
20182;DHT22;10250;50.756;6.172;2023-02-28T08:50:38;3.10;1.00
20182;DHT22;10250;50.756;6.172;2023-02-28T08:52:38;3.10;1.00
20182;DHT22;10250;50.756;6.172;2023-02-28T08:54:39;3.10;1.00
20182;DHT22;10250;50.756;6.172;2023-02-28T08:56:39;2.60;1.00
20182;DHT22;10250;50.756;6.172;2023-02-28T08:58:40;2.30;1.00
20182;DHT22;10250;50.756;6.172;2023-02-28T09:00:41;2.50;1.00
20182;DHT22;10250;50.756;6.172;2023-02-28T09:02:41;3.10;1.00
20182;DHT22;10250;50.756;6.172;2023-02-28T09:04:44;3.20;1.00
20182;DHT22;10250;50.756;6.172;2023-02-28T09:06:47;2.70;1.00
20182;DHT22;10250;50.756;6.172;2023-02-28T09:08:49;2.90;1.00
20182;DHT22;10250;50.756;6.172;2023-02-28T09:10:50;3.60;1.00
20182;DHT22;10250;50.756;6.172;2023-02-28T09:12:51;3.30;1.00
20182;DHT22;10250;50.756;6.172;2023-02-28T09:14:53;3.20;1.00
20182;DHT22;10250;50.756;6.172;2023-02-28T09:16:54;3.50;1.00
20182;DHT22;10250;50.756;6.172;2023-02-28T09:18:55;3.20;1.00
20182;DHT22;10250;50.756;6.172;2023-02-28T09:20:55;3.40;1.00
20182;DHT22;10250;50.756;6.172;2023-02-28T09:22:56;3.40;1.00
20182;DHT22;10250;50.756;6.172;2023-02-28T09:24:57;3.20;1.00
20182;DHT22;10250;50.756;6.172;2023-02-28T09:26:57;3.20;1.00
20182;DHT22;10250;50.756;6.172;2023-02-28T09:28:58;3.10;1.00
20182;DHT22;10250;50.756;6.172;2023-02-28T09:30:59;3.40;1.00
20182;DHT22;10250;50.756;6.172;2023-02-28T09:33:00;3.30;1.00
20182;DHT22;10250;50.756;6.172;2023-02-28T09:35:00;3.60;1.00
20182;DHT22;10250;50.756;6.172;2023-02-28T09:37:01;4.00;1.00
20182;DHT22;10250;50.756;6.172;2023-02-28T09:39:01;3.70;1.00
20182;DHT22;10250;50.756;6.172;2023-02-28T09:41:08;3.40;1.00
20182;DHT22;10250;50.756;6.172;2023-02-28T09:43:14;3.80;1.00
20182;DHT22;10250;50.756;6.172;2023-02-28T09:45:38;3.80;1.00
20182;DHT22;10250;50.756;6.172;2023-02-28T09:47:45;4.40;1.00
20182;DHT22;10250;50.756;6.172;2023-02-28T09:49:47;3.80;1.00
20182;DHT22;10250;50.756;6.172;2023-02-28T09:53:53;3.90;1.00
20182;DHT22;10250;50.756;6.172;2023-02-28T09:57:01;4.20;1.00
20182;DHT22;10250;50.756;6.172;2023-02-28T09:58:47;4.50;1.00
20182;DHT22;10250;50.756;6.172;2023-02-28T10:01:07;4.60;1.00
20182;DHT22;10250;50.756;6.172;2023-02-28T10:03:29;4.70;1.00
20182;DHT22;10250;50.756;6.172;2023-02-28T10:05:37;4.40;1.00
20182;DHT22;10250;50.756;6.172;2023-02-28T10:09:53;4.70;1.00
20182;DHT22;10250;50.756;6.172;2023-02-28T10:12:00;4.70;1.00
20182;DHT22;10250;50.756;6.172;2023-02-28T10:16:27;4.50;1.00
20182;DHT22;10250;50.756;6.172;2023-02-28T10:20:43;3.90;1.00
20182;DHT22;10250;50.756;6.172;2023-02-28T10:25:23;4.20;1.00
20182;DHT22;10250;50.756;6.172;2023-02-28T10:27:28;3.80;1.00
20182;DHT22;10250;50.756;6.172;2023-02-28T10:29:31;4.00;1.00
20182;DHT22;10250;50.756;6.172;2023-02-28T10:31:33;3.80;1.00
20182;DHT22;10250;50.756;6.172;2023-02-28T10:33:35;4.10;1.00
20182;DHT22;10250;50.756;6.172;2023-02-28T10:35:35;4.10;1.00
20182;DHT22;10250;50.756;6.172;2023-02-28T10:37:43;4.10;1.00
20182;DHT22;10250;50.756;6.172;2023-02-28T10:39:45;4.30;1.00
20182;DHT22;10250;50.756;6.172;2023-02-28T10:41:46;4.50;1.00
20182;DHT22;10250;50.756;6.172;2023-02-28T10:43:47;4.20;1.00
20182;DHT22;10250;50.756;6.172;2023-02-28T10:48:36;4.30;1.00
20182;DHT22;10250;50.756;6.172;2023-02-28T10:52:50;4.40;1.00
20182;DHT22;10250;50.756;6.172;2023-02-28T10:55:14;4.50;1.00
20182;DHT22;10250;50.756;6.172;2023-02-28T10:57:19;4.20;1.00
20182;DHT22;10250;50.756;6.172;2023-02-28T10:59:28;4.20;1.00
20182;DHT22;10250;50.756;6.172;2023-02-28T11:03:34;4.40;1.00
20182;DHT22;10250;50.756;6.172;2023-02-28T11:05:35;4.10;1.00
20182;DHT22;10250;50.756;6.172;2023-02-28T11:07:37;4.30;1.00
20182;DHT22;10250;50.756;6.172;2023-02-28T11:09:40;4.50;1.00
20182;DHT22;10250;50.756;6.172;2023-02-28T11:11:45;4.20;1.00
20182;DHT22;10250;50.756;6.172;2023-02-28T11:13:47;3.80;1.00
20182;DHT22;10250;50.756;6.172;2023-02-28T11:15:58;3.70;1.00
20182;DHT22;10250;50.756;6.172;2023-02-28T11:20:23;4.20;1.00
20182;DHT22;10250;50.756;6.172;2023-02-28T11:22:27;4.20;1.00
20182;DHT22;10250;50.756;6.172;2023-02-28T11:24:32;4.40;1.00
20182;DHT22;10250;50.756;6.172;2023-02-28T11:26:46;4.10;1.00
20182;DHT22;10250;50.756;6.172;2023-02-28T11:29:03;3.80;1.00
20182;DHT22;10250;50.756;6.172;2023-02-28T11:35:27;3.80;1.00
20182;DHT22;10250;50.756;6.172;2023-02-28T11:37:29;3.80;1.00
20182;DHT22;10250;50.756;6.172;2023-02-28T11:39:32;3.90;1.00
20182;DHT22;10250;50.756;6.172;2023-02-28T11:48:41;4.50;1.00
20182;DHT22;10250;50.756;6.172;2023-02-28T11:55:57;3.90;1.00
20182;DHT22;10250;50.756;6.172;2023-02-28T12:03:03;3.80;1.00
20182;DHT22;10250;50.756;6.172;2023-02-28T12:15:05;3.60;1.00
20182;DHT22;10250;50.756;6.172;2023-02-28T12:19:53;4.10;1.00
20182;DHT22;10250;50.756;6.172;2023-02-28T12:24:35;4.70;1.00
20182;DHT22;10250;50.756;6.172;2023-02-28T12:26:44;4.50;1.00
20182;DHT22;10250;50.756;6.172;2023-02-28T12:28:57;4.60;1.00
20182;DHT22;10250;50.756;6.172;2023-02-28T12:31:14;4.70;1.00
20182;DHT22;10250;50.756;6.172;2023-02-28T12:33:20;4.30;1.00
20182;DHT22;10250;50.756;6.172;2023-02-28T12:35:28;4.10;1.00
20182;DHT22;10250;50.756;6.172;2023-02-28T12:37:50;4.50;1.00
20182;DHT22;10250;50.756;6.172;2023-02-28T12:40:00;4.60;1.00
20182;DHT22;10250;50.756;6.172;2023-02-28T12:42:19;4.80;1.00
20182;DHT22;10250;50.756;6.172;2023-02-28T12:44:34;4.80;1.00
20182;DHT22;10250;50.756;6.172;2023-02-28T12:46:57;4.70;1.00
20182;DHT22;10250;50.756;6.172;2023-02-28T12:49:05;4.30;1.00
20182;DHT22;10250;50.756;6.172;2023-02-28T12:51:07;4.10;1.00
20182;DHT22;10250;50.756;6.172;2023-02-28T12:56:02;4.10;1.00
20182;DHT22;10250;50.756;6.172;2023-02-28T13:00:16;4.10;1.00
20182;DHT22;10250;50.756;6.172;2023-02-28T13:09:20;4.00;1.00
20182;DHT22;10250;50.756;6.172;2023-02-28T13:11:45;3.90;1.00
20182;DHT22;10250;50.756;6.172;2023-02-28T13:13:46;4.10;1.00
20182;DHT22;10250;50.756;6.172;2023-02-28T13:18:00;4.30;1.00
20182;DHT22;10250;50.756;6.172;2023-02-28T13:20:01;4.30;1.00
20182;DHT22;10250;50.756;6.172;2023-02-28T13:22:02;4.50;1.00
20182;DHT22;10250;50.756;6.172;2023-02-28T13:24:04;4.50;1.00
20182;DHT22;10250;50.756;6.172;2023-02-28T13:26:06;4.70;1.00
20182;DHT22;10250;50.756;6.172;2023-02-28T13:28:12;4.20;1.00
20182;DHT22;10250;50.756;6.172;2023-02-28T13:35:36;4.50;1.00
20182;DHT22;10250;50.756;6.172;2023-02-28T13:37:43;4.60;1.00
20182;DHT22;10250;50.756;6.172;2023-02-28T13:41:45;4.90;1.00
20182;DHT22;10250;50.756;6.172;2023-02-28T13:44:20;4.80;1.00
20182;DHT22;10250;50.756;6.172;2023-02-28T13:46:23;4.70;1.00
20182;DHT22;10250;50.756;6.172;2023-02-28T13:48:26;4.60;1.00
20182;DHT22;10250;50.756;6.172;2023-02-28T13:50:39;4.80;1.00
20182;DHT22;10250;50.756;6.172;2023-02-28T14:06:33;4.10;1.00
20182;DHT22;10250;50.756;6.172;2023-02-28T14:08:34;4.10;1.00
20182;DHT22;10250;50.756;6.172;2023-02-28T14:10:49;4.40;1.00
20182;DHT22;10250;50.756;6.172;2023-02-28T14:12:59;4.30;1.00
20182;DHT22;10250;50.756;6.172;2023-02-28T14:15:00;4.50;1.00
20182;DHT22;10250;50.756;6.172;2023-02-28T14:17:08;5.20;1.00
20182;DHT22;10250;50.756;6.172;2023-02-28T14:19:34;5.10;1.00
20182;DHT22;10250;50.756;6.172;2023-02-28T14:21:38;4.70;1.00
20182;DHT22;10250;50.756;6.172;2023-02-28T14:26:17;5.00;1.00
20182;DHT22;10250;50.756;6.172;2023-02-28T14:33:59;4.90;1.00
20182;DHT22;10250;50.756;6.172;2023-02-28T14:35:50;5.00;1.00
20182;DHT22;10250;50.756;6.172;2023-02-28T14:37:53;5.00;1.00
20182;DHT22;10250;50.756;6.172;2023-02-28T14:39:55;5.00;1.00
20182;DHT22;10250;50.756;6.172;2023-02-28T14:41:57;4.70;1.00
20182;DHT22;10250;50.756;6.172;2023-02-28T14:44:14;4.70;1.00
20182;DHT22;10250;50.756;6.172;2023-02-28T14:46:17;4.90;1.00
20182;DHT22;10250;50.756;6.172;2023-02-28T14:48:19;5.00;1.00
20182;DHT22;10250;50.756;6.172;2023-02-28T14:50:22;5.10;1.00
20182;DHT22;10250;50.756;6.172;2023-02-28T14:52:26;5.00;1.00
20182;DHT22;10250;50.756;6.172;2023-02-28T14:54:30;4.80;1.00
20182;DHT22;10250;50.756;6.172;2023-02-28T14:56:38;4.90;1.00
20182;DHT22;10250;50.756;6.172;2023-02-28T14:58:53;4.70;1.00
20182;DHT22;10250;50.756;6.172;2023-02-28T15:00:57;4.90;1.00
20182;DHT22;10250;50.756;6.172;2023-02-28T15:03:00;5.00;1.00
20182;DHT22;10250;50.756;6.172;2023-02-28T15:07:14;5.20;1.00
20182;DHT22;10250;50.756;6.172;2023-02-28T15:09:17;4.90;1.00
20182;DHT22;10250;50.756;6.172;2023-02-28T15:11:19;4.70;1.00
20182;DHT22;10250;50.756;6.172;2023-02-28T15:13:24;4.90;1.00
20182;DHT22;10250;50.756;6.172;2023-02-28T15:17:45;4.70;1.00
20182;DHT22;10250;50.756;6.172;2023-02-28T15:19:48;5.20;1.00
20182;DHT22;10250;50.756;6.172;2023-02-28T15:22:07;5.10;1.00
20182;DHT22;10250;50.756;6.172;2023-02-28T15:26:28;4.90;1.00
20182;DHT22;10250;50.756;6.172;2023-02-28T15:28:30;4.80;1.00
20182;DHT22;10250;50.756;6.172;2023-02-28T15:30:31;4.80;1.00
20182;DHT22;10250;50.756;6.172;2023-02-28T15:32:37;5.20;1.00
20182;DHT22;10250;50.756;6.172;2023-02-28T15:34:42;4.80;1.00
20182;DHT22;10250;50.756;6.172;2023-02-28T15:36:42;4.90;1.00
20182;DHT22;10250;50.756;6.172;2023-02-28T15:38:43;5.00;1.00
20182;DHT22;10250;50.756;6.172;2023-02-28T15:43:16;4.90;1.00
20182;DHT22;10250;50.756;6.172;2023-02-28T15:45:36;4.90;1.00
20182;DHT22;10250;50.756;6.172;2023-02-28T15:47:38;4.70;1.00
20182;DHT22;10250;50.756;6.172;2023-02-28T15:51:56;5.00;1.00
20182;DHT22;10250;50.756;6.172;2023-02-28T15:54:23;5.20;1.00